• Join FlightAware (Why Join?)
  • Login
  • US Flag 
12:03PM EST


 

Airport Tracker/Info


-or-


 

Live Flight TrackerFlight Track Log ✈ JBU56 ✈ 18-Apr-2013 ✈ KJFK - KBTV

Flight Track Log - Related Links

Times and Time Zones

All times are in EDT time to prevent confusion due to time zone crossing. See the JBU56 flight status page for this flight to view local times or setup timezone preferences in your user account.

Time Position Orientation Groundspeed Altitude Reporting Facility
EDT Latitude Longitude Course Direction KTS MPH feet Rate Location/Type
10:03AM 40.6667 -73.7500 14° North 162 186 1,600  Level New York TRACON
10:05AM 40.9719 -73.5891 21° North  Level FlightAware Approximate
10:05AM 40.7544 -73.5825 55° Northeast 239 275 7,600  Level Boston Center
10:06AM 41.0591 -73.5385 27° Northeast  Level FlightAware Approximate
10:06AM 40.8094 -73.5014 48° Northeast 272 313 11,200  Level Boston Center
10:07AM 41.1443 -73.4816 27° Northeast  Level FlightAware Approximate
10:07AM 40.8931 -73.4725 15° North 287 330 13,700  Level Boston Center
10:08AM 41.2336 -73.4388 14° North  Level FlightAware Approximate
10:08AM 40.9892 -73.4464 12° North 302 348 15,200  Level Boston Center
10:09AM 41.0936 -73.4206 11° North 358 412 17,700 2,308 Climbing Boston Center
10:10AM 41.2128 -73.3864 12° North 380 437 19,700 1,678 Climbing Boston Center
10:11AM 41.3256 -73.3578 11° North 400 460 21,000 645 Climbing Boston Center
10:12AM 41.4403 -73.3261 12° North 411 473 21,000  Level Boston Center
10:13AM 41.5369 -73.2444 32° Northeast 402 463 21,000  Level Boston Center
10:14AM 41.6125 -73.1481 44° Northeast 407 468 21,000  Level Boston Center
10:15AM 41.7231 -73.1217 10° North 394 453 21,000  Level Boston Center
10:16AM 41.8333 -73.1422 352° North 383 441 21,000  Level Boston Center
10:17AM 41.9417 -73.1631 352° North 383 441 21,000  Level Boston Center
10:18AM 42.0500 -73.1811 353° North 388 447 21,000  Level Boston Center
10:19AM 42.1603 -73.1992 353° North 388 447 21,000  Level Boston Center
10:20AM 42.2686 -73.2200 352° North 393 452 21,000  Level Boston Center
10:21AM 42.3914 -73.2300 357° North 393 452 21,000  Level Boston Center
10:22AM 42.4997 -73.2511 352° North 393 452 21,000  Level Boston Center
10:23AM 42.5869 -73.2664 353° North 393 452 21,000  Level Boston Center
10:24AM 42.7286 -73.2992 350° North 388 447 21,000  Level Boston Center
10:25AM 42.8492 -73.3208 352° North 394 453 21,000  Level Boston Center
10:26AM 42.9594 -73.3422 352° North 394 453 21,000  Level Boston Center
10:27AM 43.0742 -73.3411 360° North 394 453 21,000  Level Boston Center
10:28AM 43.1869 -73.3256 North 399 459 21,000  Level Boston Center
10:29AM 43.2994 -73.3103 North 404 465 21,000 -50 Level Boston Center
10:30AM 43.3914 -73.3000 North 404 465 20,900 -1,488 Descending Boston Center
10:31AM 43.5144 -73.2847 North 404 465 18,000 -2,529 Descending Boston Center
10:32AM 43.6250 -73.2719 North 404 465 15,800 -2,593 Descending Boston Center
10:33AM 43.7394 -73.2592 North 396 456 12,900 -2,441 Descending Boston Center
10:34AM 43.8397 -73.2517 North 366 421 11,000 -942 Descending Boston Center
10:35AM 43.9231 -73.2528 359° North 330 380 11,000 -446 Level Boston Center
10:36AM 43.9978 -73.2683 351° North 298 343 10,100 -1,289 Descending Boston Center
10:37AM 44.0792 -73.2811 354° North 293 337 8,400 -1,686 Descending Boston Center
10:38AM 44.1603 -73.2939 354° North 293 337 6,700 -1,636 Descending Boston Center
10:39AM 44.2392 -73.3153 349° North 293 337 5,100 -1,576 Descending Boston Center
10:40AM 44.3225 -73.3222 357° North 293 337 3,600 -1,068 Descending Boston Center
10:41AM 44.4036 -73.3292 356° North 288 331 3,000 -295 Descending Boston Center
10:42AM 44.4725 -73.3217 North 267 307 3,000 -98 Level Boston Center
10:43AM 44.5353 -73.2964 16° North 245 282 2,800 -564 Descending Boston Center
10:44AM 44.5461 -73.2497 72° East 169 194 1,900 -661 Descending Boston Center
10:45AM 44.5192 -73.2261 148° Southeast 79 91 1,500 -492 Descending Boston Center
10:46AM 44.4964 -73.1908 132° Southeast 102 117 900 -590 Descending Boston Center